sensor_id;sensor_type;location;lat;lon;timestamp;pressure;altitude;pressure_sealevel;temperature;humidity
43147;BME280;28752;48.266;7.402;2023-09-19T00:01:17;99145.81;;;18.37;96.94
43147;BME280;28752;48.266;7.402;2023-09-19T00:03:44;99141.22;;;18.17;98.09
43147;BME280;28752;48.266;7.402;2023-09-19T00:06:10;99138.78;;;18.22;97.43
43147;BME280;28752;48.266;7.402;2023-09-19T00:08:35;99144.09;;;18.16;97.96
43147;BME280;28752;48.266;7.402;2023-09-19T00:11:00;99133.38;;;18.02;99.44
43147;BME280;28752;48.266;7.402;2023-09-19T00:13:27;99138.53;;;18.04;99.24
43147;BME280;28752;48.266;7.402;2023-09-19T00:15:53;99149.25;;;18.04;99.16
43147;BME280;28752;48.266;7.402;2023-09-19T00:18:21;99154.75;;;17.96;99.09
43147;BME280;28752;48.266;7.402;2023-09-19T00:20:47;99152.09;;;17.96;99.00
43147;BME280;28752;48.266;7.402;2023-09-19T00:23:13;99147.31;;;17.91;98.87
43147;BME280;28752;48.266;7.402;2023-09-19T00:25:39;99149.56;;;17.87;98.79
43147;BME280;28752;48.266;7.402;2023-09-19T00:28:05;99143.94;;;17.75;98.91
43147;BME280;28752;48.266;7.402;2023-09-19T00:30:32;99155.06;;;17.72;98.40
43147;BME280;28752;48.266;7.402;2023-09-19T00:32:58;99157.13;;;17.70;98.71
43147;BME280;28752;48.266;7.402;2023-09-19T00:35:23;99154.19;;;17.65;99.08
43147;BME280;28752;48.266;7.402;2023-09-19T00:37:50;99158.31;;;17.68;99.81
43147;BME280;28752;48.266;7.402;2023-09-19T00:40:15;99153.56;;;17.63;100.00
43147;BME280;28752;48.266;7.402;2023-09-19T00:42:42;99161.41;;;17.65;100.00
43147;BME280;28752;48.266;7.402;2023-09-19T00:45:08;99156.66;;;17.67;100.00
43147;BME280;28752;48.266;7.402;2023-09-19T00:47:36;99158.31;;;17.68;100.00
43147;BME280;28752;48.266;7.402;2023-09-19T00:50:03;99161.47;;;17.78;100.00
43147;BME280;28752;48.266;7.402;2023-09-19T00:52:29;99155.47;;;17.76;100.00
43147;BME280;28752;48.266;7.402;2023-09-19T00:54:57;99163.31;;;17.77;100.00
43147;BME280;28752;48.266;7.402;2023-09-19T00:57:25;99158.63;;;17.86;100.00
43147;BME280;28752;48.266;7.402;2023-09-19T00:59:53;99166.88;;;17.91;100.00
43147;BME280;28752;48.266;7.402;2023-09-19T01:02:20;99162.78;;;17.96;99.80
43147;BME280;28752;48.266;7.402;2023-09-19T01:04:46;99170.41;;;17.92;98.89
43147;BME280;28752;48.266;7.402;2023-09-19T01:07:11;99166.69;;;17.93;98.25
43147;BME280;28752;48.266;7.402;2023-09-19T01:09:37;99168.16;;;17.96;98.41
43147;BME280;28752;48.266;7.402;2023-09-19T01:12:05;99174.53;;;17.94;97.17
43147;BME280;28752;48.266;7.402;2023-09-19T01:17:32;99184.69;;;18.06;97.93
43147;BME280;28752;48.266;7.402;2023-09-19T01:28:07;99185.34;;;18.21;98.74
43147;BME280;28752;48.266;7.402;2023-09-19T01:30:43;99194.81;;;18.17;98.92
43147;BME280;28752;48.266;7.402;2023-09-19T01:33:09;99189.69;;;18.22;98.86
43147;BME280;28752;48.266;7.402;2023-09-19T01:35:38;99191.72;;;18.20;98.48
43147;BME280;28752;48.266;7.402;2023-09-19T01:38:05;99186.16;;;18.22;98.64
43147;BME280;28752;48.266;7.402;2023-09-19T01:40:32;99190.09;;;18.26;99.05
43147;BME280;28752;48.266;7.402;2023-09-19T01:51:33;99201.63;;;18.26;99.49
43147;BME280;28752;48.266;7.402;2023-09-19T01:54:11;99206.22;;;18.33;99.56
43147;BME280;28752;48.266;7.402;2023-09-19T01:56:50;99202.47;;;18.27;100.00
43147;BME280;28752;48.266;7.402;2023-09-19T01:59:21;99211.19;;;18.36;98.69
43147;BME280;28752;48.266;7.402;2023-09-19T02:01:52;99213.00;;;18.35;98.95
43147;BME280;28752;48.266;7.402;2023-09-19T02:04:18;99221.44;;;18.25;99.12
43147;BME280;28752;48.266;7.402;2023-09-19T02:06:43;99219.81;;;18.31;99.39
43147;BME280;28752;48.266;7.402;2023-09-19T02:09:12;99215.47;;;18.30;100.00
43147;BME280;28752;48.266;7.402;2023-09-19T02:11:39;99214.66;;;18.29;99.61
43147;BME280;28752;48.266;7.402;2023-09-19T02:14:05;99208.66;;;18.27;98.66
43147;BME280;28752;48.266;7.402;2023-09-19T02:16:34;99205.97;;;18.21;99.52
43147;BME280;28752;48.266;7.402;2023-09-19T02:18:59;99205.56;;;18.24;99.80
43147;BME280;28752;48.266;7.402;2023-09-19T02:21:25;99210.06;;;18.17;99.83
43147;BME280;28752;48.266;7.402;2023-09-19T02:23:50;99204.50;;;18.18;100.00
43147;BME280;28752;48.266;7.402;2023-09-19T02:26:16;99209.88;;;18.18;100.00
43147;BME280;28752;48.266;7.402;2023-09-19T02:28:43;99209.47;;;18.21;100.00
43147;BME280;28752;48.266;7.402;2023-09-19T02:31:11;99217.09;;;18.24;100.00
43147;BME280;28752;48.266;7.402;2023-09-19T02:33:36;99213.19;;;18.27;100.00
43147;BME280;28752;48.266;7.402;2023-09-19T02:36:02;99221.84;;;18.29;100.00
43147;BME280;28752;48.266;7.402;2023-09-19T02:38:30;99221.66;;;18.31;100.00
43147;BME280;28752;48.266;7.402;2023-09-19T02:40:56;99226.81;;;18.32;100.00
43147;BME280;28752;48.266;7.402;2023-09-19T02:43:22;99233.41;;;18.29;100.00
43147;BME280;28752;48.266;7.402;2023-09-19T02:45:48;99230.13;;;18.34;100.00
43147;BME280;28752;48.266;7.402;2023-09-19T02:48:18;99231.78;;;18.35;100.00
43147;BME280;28752;48.266;7.402;2023-09-19T02:50:44;99229.28;;;18.34;100.00
43147;BME280;28752;48.266;7.402;2023-09-19T02:53:09;99231.38;;;18.38;100.00
43147;BME280;28752;48.266;7.402;2023-09-19T02:55:38;99222.88;;;18.28;100.00
43147;BME280;28752;48.266;7.402;2023-09-19T02:58:06;99232.56;;;18.29;100.00
43147;BME280;28752;48.266;7.402;2023-09-19T03:00:33;99229.91;;;18.29;100.00
43147;BME280;28752;48.266;7.402;2023-09-19T03:03:00;99227.63;;;18.26;100.00
43147;BME280;28752;48.266;7.402;2023-09-19T03:05:27;99230.75;;;18.29;100.00
43147;BME280;28752;48.266;7.402;2023-09-19T03:07:56;99228.44;;;18.26;100.00
43147;BME280;28752;48.266;7.402;2023-09-19T03:10:22;99231.97;;;18.27;100.00
43147;BME280;28752;48.266;7.402;2023-09-19T03:12:49;99222.69;;;18.29;100.00
43147;BME280;28752;48.266;7.402;2023-09-19T03:15:15;99221.25;;;18.27;100.00
43147;BME280;28752;48.266;7.402;2023-09-19T03:17:44;99224.94;;;18.26;100.00
43147;BME280;28752;48.266;7.402;2023-09-19T03:20:10;99230.50;;;18.24;100.00
43147;BME280;28752;48.266;7.402;2023-09-19T03:22:38;99237.91;;;18.22;100.00
43147;BME280;28752;48.266;7.402;2023-09-19T03:25:04;99236.66;;;18.25;100.00
43147;BME280;28752;48.266;7.402;2023-09-19T03:27:34;99240.19;;;18.25;100.00
43147;BME280;28752;48.266;7.402;2023-09-19T03:30:00;99238.13;;;18.21;100.00
43147;BME280;28752;48.266;7.402;2023-09-19T03:32:25;99236.06;;;18.23;100.00
43147;BME280;28752;48.266;7.402;2023-09-19T03:34:51;99241.22;;;18.24;100.00
43147;BME280;28752;48.266;7.402;2023-09-19T03:37:17;99240.19;;;18.25;100.00
43147;BME280;28752;48.266;7.402;2023-09-19T03:39:45;99238.53;;;18.18;100.00
43147;BME280;28752;48.266;7.402;2023-09-19T03:42:10;99250.47;;;18.22;99.69
43147;BME280;28752;48.266;7.402;2023-09-19T03:44:35;99246.56;;;18.24;98.70
43147;BME280;28752;48.266;7.402;2023-09-19T03:47:00;99243.69;;;18.26;95.07
43147;BME280;28752;48.266;7.402;2023-09-19T03:49:26;99245.97;;;18.22;92.01
43147;BME280;28752;48.266;7.402;2023-09-19T03:51:51;99255.84;;;18.22;90.39
43147;BME280;28752;48.266;7.402;2023-09-19T03:54:17;99261.63;;;18.25;89.42
43147;BME280;28752;48.266;7.402;2023-09-19T03:56:44;99262.25;;;18.27;90.38
43147;BME280;28752;48.266;7.402;2023-09-19T03:59:10;99246.38;;;18.19;88.41
43147;BME280;28752;48.266;7.402;2023-09-19T04:01:35;99263.91;;;18.28;88.86
43147;BME280;28752;48.266;7.402;2023-09-19T04:04:01;99264.94;;;18.27;89.62
43147;BME280;28752;48.266;7.402;2023-09-19T04:06:34;99262.44;;;18.26;88.44
43147;BME280;28752;48.266;7.402;2023-09-19T04:09:01;99274.63;;;18.28;89.43
43147;BME280;28752;48.266;7.402;2023-09-19T04:11:26;99267.63;;;18.27;89.44
43147;BME280;28752;48.266;7.402;2023-09-19T04:13:52;99269.28;;;18.28;89.56
43147;BME280;28752;48.266;7.402;2023-09-19T04:16:17;99267.41;;;18.22;89.25
43147;BME280;28752;48.266;7.402;2023-09-19T04:18:43;99271.50;;;18.25;88.89
43147;BME280;28752;48.266;7.402;2023-09-19T04:21:09;99270.69;;;18.24;87.82
43147;BME280;28752;48.266;7.402;2023-09-19T04:23:34;99278.53;;;18.26;88.81
43147;BME280;28752;48.266;7.402;2023-09-19T04:26:00;99279.72;;;18.17;89.09
43147;BME280;28752;48.266;7.402;2023-09-19T04:28:25;99279.72;;;18.17;88.38
43147;BME280;28752;48.266;7.402;2023-09-19T04:30:53;99293.31;;;18.15;88.94
43147;BME280;28752;48.266;7.402;2023-09-19T04:33:18;99292.72;;;18.13;89.67
43147;BME280;28752;48.266;7.402;2023-09-19T04:35:43;99293.53;;;18.14;89.47
43147;BME280;28752;48.266;7.402;2023-09-19T04:38:09;99294.34;;;18.14;88.77
43147;BME280;28752;48.266;7.402;2023-09-19T04:40:34;99294.53;;;18.13;88.82
43147;BME280;28752;48.266;7.402;2023-09-19T04:43:00;99288.97;;;18.07;89.04
43147;BME280;28752;48.266;7.402;2023-09-19T04:45:27;99290.81;;;18.07;88.42
43147;BME280;28752;48.266;7.402;2023-09-19T04:47:52;99279.06;;;18.08;87.49
43147;BME280;28752;48.266;7.402;2023-09-19T04:50:18;99283.81;;;18.13;87.52
43147;BME280;28752;48.266;7.402;2023-09-19T04:52:44;99298.25;;;18.11;86.92
43147;BME280;28752;48.266;7.402;2023-09-19T04:55:11;99292.22;;;18.03;87.86
43147;BME280;28752;48.266;7.402;2023-09-19T04:57:38;99304.56;;;17.97;87.08
43147;BME280;28752;48.266;7.402;2023-09-19T05:00:04;99308.66;;;17.93;86.26
43147;BME280;28752;48.266;7.402;2023-09-19T05:02:37;99319.28;;;17.86;87.14
43147;BME280;28752;48.266;7.402;2023-09-19T05:05:03;99324.81;;;17.78;86.66
43147;BME280;28752;48.266;7.402;2023-09-19T05:07:30;99324.81;;;17.78;85.90
43147;BME280;28752;48.266;7.402;2023-09-19T05:09:55;99337.16;;;17.79;85.76
43147;BME280;28752;48.266;7.402;2023-09-19T05:12:20;99340.69;;;17.80;85.39
43147;BME280;28752;48.266;7.402;2023-09-19T05:14:45;99350.16;;;17.82;85.13
43147;BME280;28752;48.266;7.402;2023-09-19T05:17:11;99351.59;;;17.78;83.81
43147;BME280;28752;48.266;7.402;2023-09-19T05:19:36;99353.69;;;17.83;84.74
43147;BME280;28752;48.266;7.402;2023-09-19T05:22:02;99360.25;;;17.80;85.03
43147;BME280;28752;48.266;7.402;2023-09-19T05:24:29;99348.94;;;17.85;84.84
43147;BME280;28752;48.266;7.402;2023-09-19T05:26:56;99358.91;;;17.91;84.51
43147;BME280;28752;48.266;7.402;2023-09-19T05:29:22;99350.88;;;17.91;84.32
43147;BME280;28752;48.266;7.402;2023-09-19T05:31:47;99355.41;;;17.90;84.82
43147;BME280;28752;48.266;7.402;2023-09-19T05:34:14;99353.16;;;17.94;84.88
43147;BME280;28752;48.266;7.402;2023-09-19T05:36:39;99352.75;;;17.90;84.77
43147;BME280;28752;48.266;7.402;2023-09-19T05:39:04;99349.38;;;17.88;85.00
43147;BME280;28752;48.266;7.402;2023-09-19T05:41:31;99360.78;;;17.90;85.02
43147;BME280;28752;48.266;7.402;2023-09-19T05:43:56;99368.22;;;17.95;85.21
43147;BME280;28752;48.266;7.402;2023-09-19T05:46:24;99363.69;;;17.96;86.03
43147;BME280;28752;48.266;7.402;2023-09-19T05:48:55;99363.69;;;17.96;86.73
43147;BME280;28752;48.266;7.402;2023-09-19T05:51:21;99369.84;;;17.96;85.40
43147;BME280;28752;48.266;7.402;2023-09-19T05:53:47;99365.38;;;18.03;85.64
43147;BME280;28752;48.266;7.402;2023-09-19T05:56:14;99374.91;;;18.13;85.53
43147;BME280;28752;48.266;7.402;2023-09-19T05:58:40;99376.19;;;18.17;84.85
43147;BME280;28752;48.266;7.402;2023-09-19T06:01:08;99384.66;;;18.20;84.83
43147;BME280;28752;48.266;7.402;2023-09-19T06:03:34;99382.22;;;18.25;84.14
43147;BME280;28752;48.266;7.402;2023-09-19T06:06:03;99385.97;;;18.31;83.48
43147;BME280;28752;48.266;7.402;2023-09-19T06:08:29;99390.56;;;18.37;83.83
43147;BME280;28752;48.266;7.402;2023-09-19T06:10:56;99393.44;;;18.36;82.72
43147;BME280;28752;48.266;7.402;2023-09-19T06:13:22;99389.31;;;18.40;83.84
43147;BME280;28752;48.266;7.402;2023-09-19T06:15:47;99389.31;;;18.40;83.46
43147;BME280;28752;48.266;7.402;2023-09-19T06:18:14;99386.88;;;18.45;83.56
43147;BME280;28752;48.266;7.402;2023-09-19T06:20:42;99400.09;;;18.46;82.62
43147;BME280;28752;48.266;7.402;2023-09-19T06:23:09;99399.03;;;18.47;83.04
43147;BME280;28752;48.266;7.402;2023-09-19T06:25:35;99398.09;;;18.62;81.16
43147;BME280;28752;48.266;7.402;2023-09-19T06:28:00;99407.38;;;19.14;79.38
43147;BME280;28752;48.266;7.402;2023-09-19T06:30:30;99407.28;;;19.69;77.13
43147;BME280;28752;48.266;7.402;2023-09-19T06:32:59;99397.75;;;20.34;73.61
43147;BME280;28752;48.266;7.402;2023-09-19T06:35:26;99395.53;;;20.89;71.04
43147;BME280;28752;48.266;7.402;2023-09-19T06:37:51;99403.69;;;21.53;69.55
43147;BME280;28752;48.266;7.402;2023-09-19T06:40:18;99405.97;;;22.25;67.19
43147;BME280;28752;48.266;7.402;2023-09-19T06:42:50;99406.78;;;23.00;64.29
43147;BME280;28752;48.266;7.402;2023-09-19T06:45:16;99405.34;;;23.46;62.58
43147;BME280;28752;48.266;7.402;2023-09-19T06:47:48;99398.41;;;24.16;59.84
43147;BME280;28752;48.266;7.402;2023-09-19T06:50:20;99399.09;;;24.59;55.30
43147;BME280;28752;48.266;7.402;2023-09-19T06:52:48;99400.78;;;24.89;55.35
43147;BME280;28752;48.266;7.402;2023-09-19T06:55:19;99405.56;;;25.73;50.82
43147;BME280;28752;48.266;7.402;2023-09-19T06:57:48;99405.88;;;26.67;48.47
43147;BME280;28752;48.266;7.402;2023-09-19T07:00:14;99409.78;;;27.25;47.69
43147;BME280;28752;48.266;7.402;2023-09-19T07:02:44;99395.09;;;28.18;44.77
43147;BME280;28752;48.266;7.402;2023-09-19T07:05:10;99404.00;;;28.51;42.61
43147;BME280;28752;48.266;7.402;2023-09-19T07:07:35;99402.63;;;28.54;42.72
43147;BME280;28752;48.266;7.402;2023-09-19T07:10:02;99405.06;;;29.14;42.57
43147;BME280;28752;48.266;7.402;2023-09-19T07:12:27;99401.03;;;29.57;42.26
43147;BME280;28752;48.266;7.402;2023-09-19T07:14:52;99407.31;;;29.48;40.71
43147;BME280;28752;48.266;7.402;2023-09-19T07:17:18;99412.50;;;29.59;40.52
43147;BME280;28752;48.266;7.402;2023-09-19T07:19:45;99412.22;;;29.46;41.79
43147;BME280;28752;48.266;7.402;2023-09-19T07:22:10;99419.00;;;29.38;39.98
43147;BME280;28752;48.266;7.402;2023-09-19T07:24:35;99415.91;;;28.98;42.75
43147;BME280;28752;48.266;7.402;2023-09-19T07:27:01;99420.88;;;28.53;42.98
43147;BME280;28752;48.266;7.402;2023-09-19T07:29:27;99417.41;;;27.83;44.55
43147;BME280;28752;48.266;7.402;2023-09-19T07:31:52;99419.22;;;27.40;47.05
43147;BME280;28752;48.266;7.402;2023-09-19T07:34:18;99421.22;;;26.78;48.78
43147;BME280;28752;48.266;7.402;2023-09-19T07:36:43;99421.06;;;26.46;50.07
43147;BME280;28752;48.266;7.402;2023-09-19T07:39:09;99426.72;;;26.44;49.12
43147;BME280;28752;48.266;7.402;2023-09-19T07:41:34;99422.31;;;25.70;49.83
43147;BME280;28752;48.266;7.402;2023-09-19T07:43:59;99435.88;;;25.53;51.70
43147;BME280;28752;48.266;7.402;2023-09-19T07:46:25;99438.59;;;25.12;51.41
43147;BME280;28752;48.266;7.402;2023-09-19T07:48:51;99439.91;;;24.69;52.37
43147;BME280;28752;48.266;7.402;2023-09-19T07:51:16;99439.78;;;24.76;52.59
43147;BME280;28752;48.266;7.402;2023-09-19T07:53:42;99447.31;;;24.86;51.12
43147;BME280;28752;48.266;7.402;2023-09-19T07:56:08;99445.63;;;24.96;50.78
43147;BME280;28752;48.266;7.402;2023-09-19T07:58:34;99449.38;;;24.95;50.11
43147;BME280;28752;48.266;7.402;2023-09-19T08:01:07;99449.31;;;24.55;49.65
43147;BME280;28752;48.266;7.402;2023-09-19T08:03:33;99450.28;;;24.72;51.39
43147;BME280;28752;48.266;7.402;2023-09-19T08:05:59;99447.25;;;24.97;51.41
43147;BME280;28752;48.266;7.402;2023-09-19T08:08:26;99449.00;;;25.04;49.74
43147;BME280;28752;48.266;7.402;2023-09-19T08:10:55;99442.84;;;25.08;50.34
43147;BME280;28752;48.266;7.402;2023-09-19T08:13:22;99451.81;;;25.09;49.80
43147;BME280;28752;48.266;7.402;2023-09-19T08:15:48;99458.59;;;25.23;49.82
43147;BME280;28752;48.266;7.402;2023-09-19T08:18:14;99463.00;;;25.00;50.21
43147;BME280;28752;48.266;7.402;2023-09-19T08:20:40;99455.84;;;24.94;49.76
43147;BME280;28752;48.266;7.402;2023-09-19T08:23:07;99460.38;;;24.65;47.98
43147;BME280;28752;48.266;7.402;2023-09-19T08:25:33;99465.06;;;24.46;48.69
43147;BME280;28752;48.266;7.402;2023-09-19T08:27:59;99465.31;;;24.68;49.19
43147;BME280;28752;48.266;7.402;2023-09-19T08:30:27;99453.44;;;24.57;48.48
43147;BME280;28752;48.266;7.402;2023-09-19T08:32:58;99458.63;;;24.59;47.38
43147;BME280;28752;48.266;7.402;2023-09-19T08:35:24;99460.47;;;24.82;48.21
43147;BME280;28752;48.266;7.402;2023-09-19T08:37:49;99449.41;;;24.83;47.96
43147;BME280;28752;48.266;7.402;2023-09-19T08:40:14;99456.81;;;24.76;48.39
43147;BME280;28752;48.266;7.402;2023-09-19T08:42:53;99454.09;;;24.88;47.57
43147;BME280;28752;48.266;7.402;2023-09-19T08:45:20;99452.19;;;25.00;47.48
43147;BME280;28752;48.266;7.402;2023-09-19T08:51:01;99450.16;;;25.08;45.66
43147;BME280;28752;48.266;7.402;2023-09-19T08:56:09;99460.44;;;25.06;46.05
43147;BME280;28752;48.266;7.402;2023-09-19T08:58:43;99461.16;;;24.89;46.10
43147;BME280;28752;48.266;7.402;2023-09-19T09:01:09;99456.84;;;25.17;46.45
43147;BME280;28752;48.266;7.402;2023-09-19T09:03:36;99459.28;;;25.30;46.00
43147;BME280;28752;48.266;7.402;2023-09-19T09:06:02;99459.94;;;25.09;45.54
43147;BME280;28752;48.266;7.402;2023-09-19T09:08:28;99462.41;;;25.10;46.47
43147;BME280;28752;48.266;7.402;2023-09-19T09:10:55;99473.25;;;25.10;45.56
43147;BME280;28752;48.266;7.402;2023-09-19T09:13:22;99466.91;;;24.93;45.80
43147;BME280;28752;48.266;7.402;2023-09-19T09:15:51;99473.44;;;24.80;46.37
43147;BME280;28752;48.266;7.402;2023-09-19T09:18:16;99474.44;;;25.03;46.25
43147;BME280;28752;48.266;7.402;2023-09-19T09:20:42;99473.31;;;25.27;45.97
43147;BME280;28752;48.266;7.402;2023-09-19T09:23:10;99475.28;;;25.44;45.50
43147;BME280;28752;48.266;7.402;2023-09-19T09:25:54;99463.50;;;25.38;45.06
43147;BME280;28752;48.266;7.402;2023-09-19T09:28:24;99467.84;;;24.98;45.65
43147;BME280;28752;48.266;7.402;2023-09-19T09:30:50;99463.91;;;24.77;45.80
43147;BME280;28752;48.266;7.402;2023-09-19T09:33:16;99466.84;;;24.76;46.78
43147;BME280;28752;48.266;7.402;2023-09-19T09:38:24;99457.44;;;24.43;46.74
43147;BME280;28752;48.266;7.402;2023-09-19T09:40:53;99467.22;;;24.68;47.82
43147;BME280;28752;48.266;7.402;2023-09-19T09:43:31;99462.13;;;24.83;46.96
43147;BME280;28752;48.266;7.402;2023-09-19T09:46:16;99461.09;;;24.84;45.81
43147;BME280;28752;48.266;7.402;2023-09-19T09:51:48;99450.28;;;25.13;44.97
43147;BME280;28752;48.266;7.402;2023-09-19T09:54:24;99444.06;;;25.00;45.18
43147;BME280;28752;48.266;7.402;2023-09-19T09:56:57;99453.47;;;25.39;46.01
43147;BME280;28752;48.266;7.402;2023-09-19T09:59:59;99446.50;;;25.43;44.90
43147;BME280;28752;48.266;7.402;2023-09-19T10:02:37;99447.59;;;25.42;45.14
43147;BME280;28752;48.266;7.402;2023-09-19T10:05:19;99449.47;;;25.41;44.42
43147;BME280;28752;48.266;7.402;2023-09-19T10:07:54;99441.34;;;25.41;44.29
43147;BME280;28752;48.266;7.402;2023-09-19T10:10:37;99442.53;;;25.62;44.39
43147;BME280;28752;48.266;7.402;2023-09-19T10:13:29;99437.09;;;25.96;44.02
43147;BME280;28752;48.266;7.402;2023-09-19T10:15:58;99441.59;;;26.19;43.86
43147;BME280;28752;48.266;7.402;2023-09-19T10:18:25;99428.59;;;26.04;42.56
43147;BME280;28752;48.266;7.402;2023-09-19T10:20:52;99435.59;;;26.00;42.74
43147;BME280;28752;48.266;7.402;2023-09-19T10:23:19;99445.28;;;26.13;42.46
43147;BME280;28752;48.266;7.402;2023-09-19T10:25:49;99440.69;;;26.53;43.23
43147;BME280;28752;48.266;7.402;2023-09-19T10:28:16;99440.19;;;26.56;42.47
43147;BME280;28752;48.266;7.402;2023-09-19T10:30:46;99436.13;;;26.58;41.57
43147;BME280;28752;48.266;7.402;2023-09-19T10:33:13;99438.28;;;26.73;41.69
43147;BME280;28752;48.266;7.402;2023-09-19T10:35:42;99449.34;;;26.67;41.24
43147;BME280;28752;48.266;7.402;2023-09-19T10:38:10;99437.84;;;26.82;41.67
43147;BME280;28752;48.266;7.402;2023-09-19T10:40:37;99447.75;;;26.71;40.86
43147;BME280;28752;48.266;7.402;2023-09-19T10:43:13;99441.88;;;26.40;41.81
43147;BME280;28752;48.266;7.402;2023-09-19T10:45:44;99452.78;;;26.06;42.81
43147;BME280;28752;48.266;7.402;2023-09-19T10:48:09;99442.63;;;25.84;42.82
43147;BME280;28752;48.266;7.402;2023-09-19T10:50:43;99448.13;;;25.73;43.31
43147;BME280;28752;48.266;7.402;2023-09-19T10:53:11;99438.13;;;25.44;44.32
43147;BME280;28752;48.266;7.402;2023-09-19T10:55:37;99446.16;;;25.10;44.72
43147;BME280;28752;48.266;7.402;2023-09-19T10:58:04;99442.00;;;24.79;42.93
43147;BME280;28752;48.266;7.402;2023-09-19T11:00:56;99439.03;;;24.92;45.71
43147;BME280;28752;48.266;7.402;2023-09-19T11:03:26;99442.47;;;24.88;45.60
43147;BME280;28752;48.266;7.402;2023-09-19T11:06:02;99445.44;;;24.51;44.31
43147;BME280;28752;48.266;7.402;2023-09-19T11:08:30;99440.84;;;24.51;48.00
43147;BME280;28752;48.266;7.402;2023-09-19T11:10:57;99433.31;;;24.65;45.36
43147;BME280;28752;48.266;7.402;2023-09-19T11:13:25;99426.38;;;24.57;45.82
43147;BME280;28752;48.266;7.402;2023-09-19T11:22:10;99428.69;;;24.77;45.88
43147;BME280;28752;48.266;7.402;2023-09-19T11:26:42;99414.19;;;25.24;45.34
43147;BME280;28752;48.266;7.402;2023-09-19T11:29:32;99405.88;;;24.73;44.75
43147;BME280;28752;48.266;7.402;2023-09-19T11:31:58;99405.09;;;24.49;45.35
43147;BME280;28752;48.266;7.402;2023-09-19T11:42:47;99399.94;;;24.88;46.01
43147;BME280;28752;48.266;7.402;2023-09-19T11:48:06;99381.91;;;25.68;42.05
43147;BME280;28752;48.266;7.402;2023-09-19T11:50:33;99378.78;;;25.77;41.66
43147;BME280;28752;48.266;7.402;2023-09-19T11:53:01;99373.91;;;25.96;43.32
43147;BME280;28752;48.266;7.402;2023-09-19T11:55:28;99384.06;;;26.00;42.13
43147;BME280;28752;48.266;7.402;2023-09-19T11:57:58;99381.50;;;25.94;42.38
43147;BME280;28752;48.266;7.402;2023-09-19T12:00:24;99372.78;;;26.09;42.96
43147;BME280;28752;48.266;7.402;2023-09-19T12:02:55;99373.75;;;26.02;42.02
43147;BME280;28752;48.266;7.402;2023-09-19T12:05:29;99364.38;;;25.93;42.19
43147;BME280;28752;48.266;7.402;2023-09-19T12:07:55;99376.88;;;25.94;42.66
43147;BME280;28752;48.266;7.402;2023-09-19T12:10:20;99360.91;;;25.98;40.93
43147;BME280;28752;48.266;7.402;2023-09-19T12:12:48;99362.91;;;25.85;40.95
43147;BME280;28752;48.266;7.402;2023-09-19T12:15:14;99362.00;;;25.97;41.38
43147;BME280;28752;48.266;7.402;2023-09-19T12:17:41;99354.13;;;25.95;40.54
43147;BME280;28752;48.266;7.402;2023-09-19T12:20:10;99357.47;;;25.85;41.65
43147;BME280;28752;48.266;7.402;2023-09-19T12:22:45;99355.81;;;26.18;42.51
43147;BME280;28752;48.266;7.402;2023-09-19T12:25:15;99357.94;;;26.33;41.76
43147;BME280;28752;48.266;7.402;2023-09-19T12:27:47;99344.66;;;26.81;41.87
43147;BME280;28752;48.266;7.402;2023-09-19T12:30:13;99343.13;;;26.90;40.24
43147;BME280;28752;48.266;7.402;2023-09-19T12:32:40;99342.06;;;26.91;40.83
43147;BME280;28752;48.266;7.402;2023-09-19T12:35:07;99334.16;;;26.90;40.41
43147;BME280;28752;48.266;7.402;2023-09-19T12:37:36;99329.81;;;26.89;39.63
43147;BME280;28752;48.266;7.402;2023-09-19T12:40:08;99326.66;;;26.75;39.84
43147;BME280;28752;48.266;7.402;2023-09-19T12:42:45;99327.00;;;26.79;40.16
43147;BME280;28752;48.266;7.402;2023-09-19T12:45:12;99331.59;;;27.05;39.70
43147;BME280;28752;48.266;7.402;2023-09-19T12:47:40;99320.16;;;26.98;39.77
43147;BME280;28752;48.266;7.402;2023-09-19T12:50:26;99321.09;;;27.14;38.05
43147;BME280;28752;48.266;7.402;2023-09-19T12:52:55;99324.84;;;27.08;38.66
43147;BME280;28752;48.266;7.402;2023-09-19T12:55:25;99337.81;;;27.01;39.98
43147;BME280;28752;48.266;7.402;2023-09-19T12:58:16;99319.16;;;27.09;38.82
43147;BME280;28752;48.266;7.402;2023-09-19T13:00:44;99318.38;;;27.14;38.00
43147;BME280;28752;48.266;7.402;2023-09-19T13:03:13;99315.94;;;27.18;38.74
43147;BME280;28752;48.266;7.402;2023-09-19T13:05:58;99316.69;;;27.08;37.82
43147;BME280;28752;48.266;7.402;2023-09-19T13:08:36;99307.63;;;27.29;37.72
43147;BME280;28752;48.266;7.402;2023-09-19T13:11:14;99316.16;;;27.38;37.85
43147;BME280;28752;48.266;7.402;2023-09-19T13:13:46;99311.88;;;27.42;37.96
43147;BME280;28752;48.266;7.402;2023-09-19T13:16:14;99305.50;;;27.32;37.46
43147;BME280;28752;48.266;7.402;2023-09-19T13:18:45;99298.81;;;27.12;37.16
43147;BME280;28752;48.266;7.402;2023-09-19T13:21:13;99314.84;;;27.13;37.46
43147;BME280;28752;48.266;7.402;2023-09-19T13:23:53;99311.22;;;27.03;36.98
43147;BME280;28752;48.266;7.402;2023-09-19T13:26:20;99317.97;;;27.00;37.21
43147;BME280;28752;48.266;7.402;2023-09-19T13:28:45;99314.53;;;27.10;38.61
43147;BME280;28752;48.266;7.402;2023-09-19T13:31:13;99312.69;;;26.88;37.59
43147;BME280;28752;48.266;7.402;2023-09-19T13:33:47;99312.03;;;26.76;38.12
43147;BME280;28752;48.266;7.402;2023-09-19T13:36:12;99311.16;;;26.70;38.85
43147;BME280;28752;48.266;7.402;2023-09-19T13:38:42;99303.72;;;26.66;37.16
43147;BME280;28752;48.266;7.402;2023-09-19T13:41:14;99306.97;;;26.63;37.81
43147;BME280;28752;48.266;7.402;2023-09-19T13:43:42;99298.66;;;26.47;37.90
43147;BME280;28752;48.266;7.402;2023-09-19T13:46:09;99295.41;;;26.28;39.14
43147;BME280;28752;48.266;7.402;2023-09-19T13:48:40;99296.50;;;26.27;39.12
43147;BME280;28752;48.266;7.402;2023-09-19T13:51:05;99300.09;;;26.11;38.96
43147;BME280;28752;48.266;7.402;2023-09-19T13:53:30;99291.97;;;26.11;39.41
43147;BME280;28752;48.266;7.402;2023-09-19T13:55:56;99295.19;;;26.08;39.55